sensor_id;sensor_type;location;lat;lon;timestamp;P1;durP1;ratioP1;P2;durP2;ratioP2
71038;SDS011;58692;43.212;27.908;2022-09-29T00:02:19;25.63;;;13.63;;
71038;SDS011;58692;43.212;27.908;2022-09-29T00:04:44;21.10;;;12.97;;
71038;SDS011;58692;43.212;27.908;2022-09-29T00:07:10;22.15;;;13.40;;
71038;SDS011;58692;43.212;27.908;2022-09-29T00:09:35;23.40;;;13.63;;
71038;SDS011;58692;43.212;27.908;2022-09-29T00:12:01;23.40;;;13.73;;
71038;SDS011;58692;43.212;27.908;2022-09-29T00:14:26;22.58;;;13.70;;
71038;SDS011;58692;43.212;27.908;2022-09-29T00:16:52;22.83;;;14.30;;
71038;SDS011;58692;43.212;27.908;2022-09-29T00:19:18;21.52;;;13.65;;
71038;SDS011;58692;43.212;27.908;2022-09-29T00:21:44;24.73;;;14.07;;
71038;SDS011;58692;43.212;27.908;2022-09-29T00:24:09;22.45;;;13.40;;
71038;SDS011;58692;43.212;27.908;2022-09-29T00:26:35;24.15;;;14.48;;
71038;SDS011;58692;43.212;27.908;2022-09-29T00:29:01;21.73;;;14.57;;
71038;SDS011;58692;43.212;27.908;2022-09-29T00:31:28;24.02;;;14.95;;
71038;SDS011;58692;43.212;27.908;2022-09-29T00:33:54;22.87;;;14.40;;
71038;SDS011;58692;43.212;27.908;2022-09-29T00:36:21;22.42;;;14.20;;
71038;SDS011;58692;43.212;27.908;2022-09-29T00:38:47;20.50;;;13.20;;
71038;SDS011;58692;43.212;27.908;2022-09-29T00:41:18;19.55;;;13.85;;
71038;SDS011;58692;43.212;27.908;2022-09-29T00:49:04;25.13;;;15.00;;
71038;SDS011;58692;43.212;27.908;2022-09-29T00:51:57;33.30;;;18.33;;
71038;SDS011;58692;43.212;27.908;2022-09-29T00:54:26;33.53;;;18.00;;
71038;SDS011;58692;43.212;27.908;2022-09-29T00:56:56;22.73;;;14.77;;
71038;SDS011;58692;43.212;27.908;2022-09-29T00:59:26;29.47;;;18.80;;
71038;SDS011;58692;43.212;27.908;2022-09-29T01:02:02;48.78;;;32.88;;
71038;SDS011;58692;43.212;27.908;2022-09-29T01:04:29;46.33;;;31.13;;
71038;SDS011;58692;43.212;27.908;2022-09-29T01:06:55;41.37;;;26.27;;
71038;SDS011;58692;43.212;27.908;2022-09-29T01:09:24;42.05;;;25.38;;
71038;SDS011;58692;43.212;27.908;2022-09-29T01:11:54;38.75;;;25.65;;
71038;SDS011;58692;43.212;27.908;2022-09-29T01:14:22;32.75;;;18.50;;
71038;SDS011;58692;43.212;27.908;2022-09-29T01:16:48;29.58;;;17.73;;
71038;SDS011;58692;43.212;27.908;2022-09-29T01:19:15;25.83;;;15.73;;
71038;SDS011;58692;43.212;27.908;2022-09-29T01:22:02;29.70;;;17.35;;
71038;SDS011;58692;43.212;27.908;2022-09-29T01:24:53;29.90;;;20.55;;
71038;SDS011;58692;43.212;27.908;2022-09-29T01:30:37;28.77;;;16.23;;
71038;SDS011;58692;43.212;27.908;2022-09-29T01:33:11;26.45;;;15.23;;
71038;SDS011;58692;43.212;27.908;2022-09-29T01:41:32;24.63;;;14.63;;
71038;SDS011;58692;43.212;27.908;2022-09-29T01:44:09;27.35;;;15.43;;
71038;SDS011;58692;43.212;27.908;2022-09-29T01:46:58;25.38;;;14.63;;
71038;SDS011;58692;43.212;27.908;2022-09-29T01:49:30;26.35;;;14.55;;
71038;SDS011;58692;43.212;27.908;2022-09-29T01:51:59;23.15;;;13.93;;
71038;SDS011;58692;43.212;27.908;2022-09-29T01:54:39;27.30;;;14.73;;
71038;SDS011;58692;43.212;27.908;2022-09-29T01:57:08;22.92;;;15.15;;
71038;SDS011;58692;43.212;27.908;2022-09-29T01:59:44;23.58;;;13.38;;
71038;SDS011;58692;43.212;27.908;2022-09-29T02:02:15;22.75;;;13.63;;
71038;SDS011;58692;43.212;27.908;2022-09-29T02:04:50;21.25;;;12.45;;
71038;SDS011;58692;43.212;27.908;2022-09-29T02:07:21;22.23;;;12.33;;
71038;SDS011;58692;43.212;27.908;2022-09-29T02:09:54;23.13;;;13.48;;
71038;SDS011;58692;43.212;27.908;2022-09-29T02:12:26;24.63;;;13.20;;
71038;SDS011;58692;43.212;27.908;2022-09-29T02:14:53;24.98;;;13.40;;
71038;SDS011;58692;43.212;27.908;2022-09-29T02:17:21;24.33;;;13.43;;
71038;SDS011;58692;43.212;27.908;2022-09-29T02:19:52;24.50;;;13.20;;
71038;SDS011;58692;43.212;27.908;2022-09-29T02:22:18;22.23;;;12.45;;
71038;SDS011;58692;43.212;27.908;2022-09-29T02:24:44;22.05;;;13.68;;
71038;SDS011;58692;43.212;27.908;2022-09-29T02:27:10;22.27;;;13.52;;
71038;SDS011;58692;43.212;27.908;2022-09-29T02:29:36;23.15;;;13.55;;
71038;SDS011;58692;43.212;27.908;2022-09-29T02:32:03;25.57;;;14.20;;
71038;SDS011;58692;43.212;27.908;2022-09-29T02:34:31;25.48;;;13.32;;
71038;SDS011;58692;43.212;27.908;2022-09-29T02:37:08;25.83;;;13.65;;
71038;SDS011;58692;43.212;27.908;2022-09-29T02:45:14;22.97;;;13.60;;
71038;SDS011;58692;43.212;27.908;2022-09-29T02:56:06;23.33;;;13.25;;
71038;SDS011;58692;43.212;27.908;2022-09-29T03:01:18;19.98;;;11.90;;
71038;SDS011;58692;43.212;27.908;2022-09-29T03:03:44;20.10;;;11.37;;
71038;SDS011;58692;43.212;27.908;2022-09-29T03:06:09;18.07;;;11.97;;
71038;SDS011;58692;43.212;27.908;2022-09-29T03:08:37;28.88;;;13.40;;
71038;SDS011;58692;43.212;27.908;2022-09-29T03:11:02;24.50;;;13.20;;
71038;SDS011;58692;43.212;27.908;2022-09-29T03:13:28;23.47;;;12.97;;
71038;SDS011;58692;43.212;27.908;2022-09-29T03:15:53;26.38;;;13.73;;
71038;SDS011;58692;43.212;27.908;2022-09-29T03:18:19;28.93;;;13.87;;
71038;SDS011;58692;43.212;27.908;2022-09-29T03:20:48;29.02;;;13.55;;
71038;SDS011;58692;43.212;27.908;2022-09-29T03:23:21;25.60;;;13.52;;
71038;SDS011;58692;43.212;27.908;2022-09-29T03:25:47;26.90;;;14.10;;
71038;SDS011;58692;43.212;27.908;2022-09-29T03:28:12;37.97;;;14.80;;
71038;SDS011;58692;43.212;27.908;2022-09-29T03:30:40;24.15;;;14.05;;
71038;SDS011;58692;43.212;27.908;2022-09-29T03:33:06;23.13;;;13.30;;
71038;SDS011;58692;43.212;27.908;2022-09-29T03:35:40;26.98;;;14.98;;
71038;SDS011;58692;43.212;27.908;2022-09-29T03:38:05;28.77;;;15.07;;
71038;SDS011;58692;43.212;27.908;2022-09-29T03:40:31;29.07;;;15.57;;
71038;SDS011;58692;43.212;27.908;2022-09-29T03:42:56;27.45;;;15.77;;
71038;SDS011;58692;43.212;27.908;2022-09-29T03:45:22;31.40;;;15.73;;
71038;SDS011;58692;43.212;27.908;2022-09-29T03:47:47;25.10;;;15.13;;
71038;SDS011;58692;43.212;27.908;2022-09-29T03:50:13;26.58;;;14.93;;
71038;SDS011;58692;43.212;27.908;2022-09-29T03:52:39;24.93;;;14.37;;
71038;SDS011;58692;43.212;27.908;2022-09-29T03:55:04;23.77;;;14.70;;
71038;SDS011;58692;43.212;27.908;2022-09-29T03:57:31;26.73;;;15.17;;
71038;SDS011;58692;43.212;27.908;2022-09-29T03:59:56;23.58;;;14.38;;
71038;SDS011;58692;43.212;27.908;2022-09-29T04:02:21;26.00;;;13.97;;
71038;SDS011;58692;43.212;27.908;2022-09-29T04:04:47;25.38;;;13.18;;
71038;SDS011;58692;43.212;27.908;2022-09-29T04:07:13;25.37;;;12.93;;
71038;SDS011;58692;43.212;27.908;2022-09-29T04:09:39;22.60;;;13.00;;
71038;SDS011;58692;43.212;27.908;2022-09-29T04:12:05;22.73;;;13.20;;
71038;SDS011;58692;43.212;27.908;2022-09-29T04:14:30;23.40;;;13.45;;
71038;SDS011;58692;43.212;27.908;2022-09-29T04:16:56;25.77;;;12.10;;
71038;SDS011;58692;43.212;27.908;2022-09-29T04:19:27;24.95;;;13.23;;
71038;SDS011;58692;43.212;27.908;2022-09-29T04:21:52;21.98;;;13.13;;
71038;SDS011;58692;43.212;27.908;2022-09-29T04:24:18;26.30;;;14.60;;
71038;SDS011;58692;43.212;27.908;2022-09-29T04:26:43;28.20;;;16.30;;
71038;SDS011;58692;43.212;27.908;2022-09-29T04:29:09;28.52;;;16.40;;
71038;SDS011;58692;43.212;27.908;2022-09-29T04:31:35;35.95;;;16.02;;
71038;SDS011;58692;43.212;27.908;2022-09-29T04:34:00;42.20;;;17.73;;
71038;SDS011;58692;43.212;27.908;2022-09-29T04:36:26;54.40;;;17.57;;
71038;SDS011;58692;43.212;27.908;2022-09-29T04:38:51;51.45;;;17.45;;
71038;SDS011;58692;43.212;27.908;2022-09-29T04:41:17;56.93;;;18.93;;
71038;SDS011;58692;43.212;27.908;2022-09-29T04:43:42;50.75;;;18.77;;
71038;SDS011;58692;43.212;27.908;2022-09-29T04:46:08;50.93;;;18.97;;
71038;SDS011;58692;43.212;27.908;2022-09-29T04:48:35;54.92;;;20.52;;
71038;SDS011;58692;43.212;27.908;2022-09-29T04:51:02;51.85;;;18.55;;
71038;SDS011;58692;43.212;27.908;2022-09-29T04:53:28;53.60;;;19.97;;
71038;SDS011;58692;43.212;27.908;2022-09-29T04:55:54;55.83;;;20.02;;
71038;SDS011;58692;43.212;27.908;2022-09-29T04:58:20;54.88;;;19.98;;
71038;SDS011;58692;43.212;27.908;2022-09-29T05:00:45;48.70;;;19.43;;
71038;SDS011;58692;43.212;27.908;2022-09-29T05:03:11;46.97;;;18.77;;
71038;SDS011;58692;43.212;27.908;2022-09-29T05:05:36;45.63;;;17.10;;
71038;SDS011;58692;43.212;27.908;2022-09-29T05:08:03;45.63;;;17.13;;
71038;SDS011;58692;43.212;27.908;2022-09-29T05:10:31;40.60;;;15.93;;
71038;SDS011;58692;43.212;27.908;2022-09-29T05:12:56;50.28;;;16.70;;
71038;SDS011;58692;43.212;27.908;2022-09-29T05:15:22;34.57;;;16.87;;
71038;SDS011;58692;43.212;27.908;2022-09-29T05:17:50;32.17;;;16.23;;
71038;SDS011;58692;43.212;27.908;2022-09-29T05:20:24;36.47;;;15.40;;
71038;SDS011;58692;43.212;27.908;2022-09-29T05:22:52;40.10;;;16.33;;
71038;SDS011;58692;43.212;27.908;2022-09-29T05:25:18;43.25;;;18.58;;
71038;SDS011;58692;43.212;27.908;2022-09-29T05:27:46;44.25;;;17.80;;
71038;SDS011;58692;43.212;27.908;2022-09-29T05:30:12;36.37;;;16.70;;
71038;SDS011;58692;43.212;27.908;2022-09-29T05:32:37;39.90;;;18.07;;
71038;SDS011;58692;43.212;27.908;2022-09-29T05:35:03;37.30;;;17.98;;
71038;SDS011;58692;43.212;27.908;2022-09-29T05:37:29;38.33;;;17.67;;
71038;SDS011;58692;43.212;27.908;2022-09-29T05:39:54;33.63;;;16.13;;
71038;SDS011;58692;43.212;27.908;2022-09-29T05:42:20;38.40;;;16.97;;
71038;SDS011;58692;43.212;27.908;2022-09-29T05:44:45;32.73;;;17.43;;
71038;SDS011;58692;43.212;27.908;2022-09-29T05:47:12;30.40;;;16.33;;
71038;SDS011;58692;43.212;27.908;2022-09-29T05:49:38;31.45;;;15.88;;
71038;SDS011;58692;43.212;27.908;2022-09-29T05:52:03;32.47;;;15.60;;
71038;SDS011;58692;43.212;27.908;2022-09-29T05:54:29;30.87;;;16.10;;
71038;SDS011;58692;43.212;27.908;2022-09-29T05:56:54;32.13;;;17.00;;
71038;SDS011;58692;43.212;27.908;2022-09-29T05:59:20;31.90;;;16.23;;
71038;SDS011;58692;43.212;27.908;2022-09-29T06:01:46;30.15;;;16.67;;
71038;SDS011;58692;43.212;27.908;2022-09-29T06:04:11;28.83;;;16.10;;
71038;SDS011;58692;43.212;27.908;2022-09-29T06:06:37;32.23;;;16.73;;
71038;SDS011;58692;43.212;27.908;2022-09-29T06:09:04;33.53;;;16.38;;
71038;SDS011;58692;43.212;27.908;2022-09-29T06:11:31;37.55;;;17.27;;
71038;SDS011;58692;43.212;27.908;2022-09-29T06:13:57;31.25;;;18.45;;
71038;SDS011;58692;43.212;27.908;2022-09-29T06:16:26;38.60;;;17.97;;
71038;SDS011;58692;43.212;27.908;2022-09-29T06:18:53;33.45;;;17.48;;
71038;SDS011;58692;43.212;27.908;2022-09-29T06:21:20;30.50;;;17.60;;
71038;SDS011;58692;43.212;27.908;2022-09-29T06:23:49;35.63;;;18.43;;
71038;SDS011;58692;43.212;27.908;2022-09-29T06:26:16;36.80;;;18.38;;
71038;SDS011;58692;43.212;27.908;2022-09-29T06:28:43;37.03;;;18.77;;
71038;SDS011;58692;43.212;27.908;2022-09-29T06:31:11;34.55;;;17.38;;
71038;SDS011;58692;43.212;27.908;2022-09-29T06:33:39;25.03;;;16.07;;
71038;SDS011;58692;43.212;27.908;2022-09-29T06:39:03;34.08;;;15.93;;
71038;SDS011;58692;43.212;27.908;2022-09-29T06:41:30;23.23;;;13.48;;
71038;SDS011;58692;43.212;27.908;2022-09-29T06:43:55;26.70;;;15.17;;
71038;SDS011;58692;43.212;27.908;2022-09-29T06:46:22;21.20;;;11.57;;
71038;SDS011;58692;43.212;27.908;2022-09-29T06:48:48;21.55;;;11.73;;
71038;SDS011;58692;43.212;27.908;2022-09-29T06:51:13;22.30;;;12.63;;
71038;SDS011;58692;43.212;27.908;2022-09-29T06:53:39;24.40;;;13.13;;
71038;SDS011;58692;43.212;27.908;2022-09-29T06:56:05;25.40;;;11.85;;
71038;SDS011;58692;43.212;27.908;2022-09-29T06:58:33;25.38;;;13.02;;
71038;SDS011;58692;43.212;27.908;2022-09-29T07:00:59;27.83;;;11.77;;
71038;SDS011;58692;43.212;27.908;2022-09-29T07:03:26;14.47;;;6.30;;
71038;SDS011;58692;43.212;27.908;2022-09-29T07:05:52;13.13;;;6.15;;
71038;SDS011;58692;43.212;27.908;2022-09-29T07:08:21;16.13;;;6.33;;
71038;SDS011;58692;43.212;27.908;2022-09-29T07:10:47;12.93;;;5.80;;
71038;SDS011;58692;43.212;27.908;2022-09-29T07:13:15;10.75;;;5.57;;
71038;SDS011;58692;43.212;27.908;2022-09-29T07:15:41;11.77;;;5.23;;
71038;SDS011;58692;43.212;27.908;2022-09-29T07:18:06;16.08;;;8.95;;
71038;SDS011;58692;43.212;27.908;2022-09-29T07:20:32;17.80;;;9.17;;
71038;SDS011;58692;43.212;27.908;2022-09-29T07:22:59;14.73;;;8.82;;
71038;SDS011;58692;43.212;27.908;2022-09-29T07:25:25;15.57;;;9.17;;
71038;SDS011;58692;43.212;27.908;2022-09-29T07:27:50;14.13;;;8.77;;
71038;SDS011;58692;43.212;27.908;2022-09-29T07:30:17;15.73;;;8.18;;
71038;SDS011;58692;43.212;27.908;2022-09-29T07:32:43;15.65;;;8.13;;
71038;SDS011;58692;43.212;27.908;2022-09-29T07:35:13;12.38;;;8.20;;
71038;SDS011;58692;43.212;27.908;2022-09-29T07:37:38;12.83;;;8.17;;
71038;SDS011;58692;43.212;27.908;2022-09-29T07:40:04;11.50;;;7.40;;
71038;SDS011;58692;43.212;27.908;2022-09-29T07:42:30;11.43;;;6.70;;
71038;SDS011;58692;43.212;27.908;2022-09-29T07:44:55;11.45;;;6.35;;
71038;SDS011;58692;43.212;27.908;2022-09-29T07:47:21;11.03;;;6.03;;
71038;SDS011;58692;43.212;27.908;2022-09-29T07:49:47;11.30;;;5.68;;
71038;SDS011;58692;43.212;27.908;2022-09-29T07:52:13;11.68;;;5.72;;
71038;SDS011;58692;43.212;27.908;2022-09-29T07:54:39;8.43;;;5.10;;
71038;SDS011;58692;43.212;27.908;2022-09-29T07:57:06;8.82;;;5.20;;
71038;SDS011;58692;43.212;27.908;2022-09-29T07:59:32;7.55;;;4.95;;
71038;SDS011;58692;43.212;27.908;2022-09-29T08:02:00;8.85;;;5.40;;
71038;SDS011;58692;43.212;27.908;2022-09-29T08:04:29;7.18;;;4.70;;
71038;SDS011;58692;43.212;27.908;2022-09-29T08:06:56;8.83;;;4.80;;
71038;SDS011;58692;43.212;27.908;2022-09-29T08:09:21;7.40;;;4.60;;
71038;SDS011;58692;43.212;27.908;2022-09-29T08:11:47;7.30;;;4.30;;
71038;SDS011;58692;43.212;27.908;2022-09-29T08:14:13;8.70;;;4.60;;
71038;SDS011;58692;43.212;27.908;2022-09-29T08:16:38;8.37;;;3.97;;
71038;SDS011;58692;43.212;27.908;2022-09-29T08:19:04;6.70;;;3.72;;
71038;SDS011;58692;43.212;27.908;2022-09-29T08:21:30;6.45;;;3.47;;
71038;SDS011;58692;43.212;27.908;2022-09-29T08:24:00;7.70;;;3.23;;
71038;SDS011;58692;43.212;27.908;2022-09-29T08:26:28;6.53;;;3.47;;
71038;SDS011;58692;43.212;27.908;2022-09-29T08:29:00;7.63;;;3.38;;
71038;SDS011;58692;43.212;27.908;2022-09-29T08:31:26;7.30;;;2.90;;
71038;SDS011;58692;43.212;27.908;2022-09-29T08:33:53;8.38;;;3.38;;
71038;SDS011;58692;43.212;27.908;2022-09-29T08:36:23;6.20;;;3.37;;
71038;SDS011;58692;43.212;27.908;2022-09-29T08:38:50;5.20;;;3.20;;
71038;SDS011;58692;43.212;27.908;2022-09-29T08:47:14;8.82;;;3.35;;
71038;SDS011;58692;43.212;27.908;2022-09-29T08:49:47;5.97;;;3.40;;
71038;SDS011;58692;43.212;27.908;2022-09-29T08:54:45;6.45;;;3.38;;
71038;SDS011;58692;43.212;27.908;2022-09-29T08:57:14;10.98;;;3.85;;
71038;SDS011;58692;43.212;27.908;2022-09-29T08:59:43;9.23;;;3.30;;
71038;SDS011;58692;43.212;27.908;2022-09-29T09:08:04;6.60;;;3.22;;
71038;SDS011;58692;43.212;27.908;2022-09-29T09:10:55;6.30;;;3.15;;
71038;SDS011;58692;43.212;27.908;2022-09-29T09:18:36;6.10;;;3.15;;
71038;SDS011;58692;43.212;27.908;2022-09-29T09:21:14;7.95;;;3.67;;
71038;SDS011;58692;43.212;27.908;2022-09-29T09:26:37;9.50;;;3.72;;
71038;SDS011;58692;43.212;27.908;2022-09-29T09:32:13;9.35;;;4.10;;
71038;SDS011;58692;43.212;27.908;2022-09-29T09:34:49;11.20;;;4.22;;
71038;SDS011;58692;43.212;27.908;2022-09-29T09:37:21;10.47;;;4.60;;
71038;SDS011;58692;43.212;27.908;2022-09-29T09:43:04;9.00;;;3.72;;
71038;SDS011;58692;43.212;27.908;2022-09-29T09:48:15;8.18;;;3.80;;
71038;SDS011;58692;43.212;27.908;2022-09-29T09:50:49;11.30;;;4.67;;
71038;SDS011;58692;43.212;27.908;2022-09-29T09:53:21;9.60;;;4.18;;
71038;SDS011;58692;43.212;27.908;2022-09-29T09:56:12;9.38;;;4.15;;
71038;SDS011;58692;43.212;27.908;2022-09-29T09:58:49;11.00;;;4.10;;
71038;SDS011;58692;43.212;27.908;2022-09-29T10:01:30;12.68;;;4.95;;
71038;SDS011;58692;43.212;27.908;2022-09-29T10:03:56;13.73;;;4.90;;
71038;SDS011;58692;43.212;27.908;2022-09-29T10:06:24;11.23;;;4.53;;
71038;SDS011;58692;43.212;27.908;2022-09-29T10:08:49;13.10;;;5.27;;
71038;SDS011;58692;43.212;27.908;2022-09-29T10:11:28;11.90;;;4.85;;
71038;SDS011;58692;43.212;27.908;2022-09-29T10:14:00;11.73;;;5.20;;
71038;SDS011;58692;43.212;27.908;2022-09-29T10:16:40;12.57;;;5.30;;
71038;SDS011;58692;43.212;27.908;2022-09-29T10:19:11;11.38;;;4.97;;
71038;SDS011;58692;43.212;27.908;2022-09-29T10:21:39;11.20;;;4.75;;
71038;SDS011;58692;43.212;27.908;2022-09-29T10:26:52;11.50;;;4.72;;
71038;SDS011;58692;43.212;27.908;2022-09-29T10:29:58;12.10;;;5.00;;
71038;SDS011;58692;43.212;27.908;2022-09-29T10:32:28;11.18;;;5.40;;
71038;SDS011;58692;43.212;27.908;2022-09-29T10:35:05;12.25;;;5.18;;
71038;SDS011;58692;43.212;27.908;2022-09-29T10:37:42;14.82;;;5.30;;
71038;SDS011;58692;43.212;27.908;2022-09-29T10:40:15;12.38;;;5.22;;
71038;SDS011;58692;43.212;27.908;2022-09-29T10:42:46;13.53;;;5.20;;
71038;SDS011;58692;43.212;27.908;2022-09-29T10:47:47;14.60;;;5.32;;
71038;SDS011;58692;43.212;27.908;2022-09-29T10:50:34;15.18;;;5.13;;
71038;SDS011;58692;43.212;27.908;2022-09-29T10:53:18;13.27;;;5.43;;
71038;SDS011;58692;43.212;27.908;2022-09-29T10:55:50;12.13;;;5.23;;
71038;SDS011;58692;43.212;27.908;2022-09-29T10:58:28;12.50;;;4.93;;
71038;SDS011;58692;43.212;27.908;2022-09-29T11:01:02;12.13;;;4.93;;
71038;SDS011;58692;43.212;27.908;2022-09-29T11:04:04;11.20;;;4.70;;
71038;SDS011;58692;43.212;27.908;2022-09-29T11:11:39;13.32;;;4.97;;
71038;SDS011;58692;43.212;27.908;2022-09-29T11:17:01;9.05;;;4.28;;
71038;SDS011;58692;43.212;27.908;2022-09-29T11:19:43;11.82;;;4.50;;
71038;SDS011;58692;43.212;27.908;2022-09-29T11:25:03;12.40;;;5.00;;
71038;SDS011;58692;43.212;27.908;2022-09-29T11:30:11;13.48;;;5.40;;
71038;SDS011;58692;43.212;27.908;2022-09-29T11:32:42;12.07;;;4.83;;
71038;SDS011;58692;43.212;27.908;2022-09-29T11:40:47;10.80;;;5.20;;
71038;SDS011;58692;43.212;27.908;2022-09-29T11:43:33;16.75;;;6.40;;
71038;SDS011;58692;43.212;27.908;2022-09-29T11:46:26;13.77;;;5.90;;
71038;SDS011;58692;43.212;27.908;2022-09-29T11:59:38;13.47;;;6.20;;
71038;SDS011;58692;43.212;27.908;2022-09-29T12:11:02;12.75;;;6.20;;
71038;SDS011;58692;43.212;27.908;2022-09-29T12:16:18;16.15;;;7.13;;
71038;SDS011;58692;43.212;27.908;2022-09-29T12:18:47;13.20;;;6.55;;
71038;SDS011;58692;43.212;27.908;2022-09-29T12:21:21;14.32;;;6.57;;
71038;SDS011;58692;43.212;27.908;2022-09-29T12:23:55;15.05;;;6.55;;
71038;SDS011;58692;43.212;27.908;2022-09-29T12:26:22;12.33;;;6.57;;
71038;SDS011;58692;43.212;27.908;2022-09-29T12:28:57;14.52;;;7.10;;
71038;SDS011;58692;43.212;27.908;2022-09-29T12:33:56;14.43;;;7.50;;
71038;SDS011;58692;43.212;27.908;2022-09-29T12:36:33;13.10;;;6.60;;
71038;SDS011;58692;43.212;27.908;2022-09-29T12:41:45;13.40;;;6.07;;
71038;SDS011;58692;43.212;27.908;2022-09-29T12:47:06;18.50;;;6.23;;
71038;SDS011;58692;43.212;27.908;2022-09-29T12:52:18;13.20;;;6.60;;
71038;SDS011;58692;43.212;27.908;2022-09-29T12:54:50;13.70;;;6.60;;
71038;SDS011;58692;43.212;27.908;2022-09-29T12:57:19;15.15;;;6.47;;
71038;SDS011;58692;43.212;27.908;2022-09-29T13:05:12;15.77;;;6.97;;
71038;SDS011;58692;43.212;27.908;2022-09-29T13:11:03;15.77;;;6.10;;
71038;SDS011;58692;43.212;27.908;2022-09-29T13:25:04;12.48;;;6.38;;
71038;SDS011;58692;43.212;27.908;2022-09-29T13:27:52;15.77;;;6.93;;
71038;SDS011;58692;43.212;27.908;2022-09-29T13:30:25;18.33;;;6.78;;
71038;SDS011;58692;43.212;27.908;2022-09-29T13:35:46;15.98;;;6.40;;
71038;SDS011;58692;43.212;27.908;2022-09-29T13:38:17;18.23;;;6.78;;
71038;SDS011;58692;43.212;27.908;2022-09-29T13:44:18;20.67;;;6.88;;
71038;SDS011;58692;43.212;27.908;2022-09-29T13:46:35;14.00;;;6.70;;
71038;SDS011;58692;43.212;27.908;2022-09-29T13:51:57;13.40;;;6.82;;
71038;SDS011;58692;43.212;27.908;2022-09-29T13:54:37;18.50;;;8.53;;
71038;SDS011;58692;43.212;27.908;2022-09-29T13:57:20;13.93;;;6.60;;
71038;SDS011;58692;43.212;27.908;2022-09-29T14:00:00;20.20;;;7.78;;
71038;SDS011;58692;43.212;27.908;2022-09-29T14:02:38;22.20;;;8.90;;
71038;SDS011;58692;43.212;27.908;2022-09-29T14:07:48;19.83;;;9.40;;
71038;SDS011;58692;43.212;27.908;2022-09-29T14:10:38;20.50;;;9.88;;
71038;SDS011;58692;43.212;27.908;2022-09-29T14:15:41;19.48;;;10.43;;
71038;SDS011;58692;43.212;27.908;2022-09-29T14:18:15;19.48;;;10.43;;
71038;SDS011;58692;43.212;27.908;2022-09-29T14:29:16;22.70;;;11.27;;
71038;SDS011;58692;43.212;27.908;2022-09-29T14:31:47;17.35;;;11.57;;
71038;SDS011;58692;43.212;27.908;2022-09-29T14:34:17;18.10;;;10.73;;
71038;SDS011;58692;43.212;27.908;2022-09-29T14:36:50;19.13;;;11.52;;
71038;SDS011;58692;43.212;27.908;2022-09-29T14:39:24;21.70;;;12.05;;
71038;SDS011;58692;43.212;27.908;2022-09-29T14:41:56;18.08;;;10.90;;
71038;SDS011;58692;43.212;27.908;2022-09-29T14:44:24;20.23;;;11.77;;
71038;SDS011;58692;43.212;27.908;2022-09-29T14:47:00;23.15;;;11.48;;
71038;SDS011;58692;43.212;27.908;2022-09-29T14:55:30;22.17;;;12.93;;
71038;SDS011;58692;43.212;27.908;2022-09-29T15:00:46;19.17;;;11.07;;
71038;SDS011;58692;43.212;27.908;2022-09-29T15:03:35;19.35;;;11.20;;
71038;SDS011;58692;43.212;27.908;2022-09-29T15:08:38;19.73;;;12.23;;
71038;SDS011;58692;43.212;27.908;2022-09-29T15:22:01;18.17;;;11.63;;
71038;SDS011;58692;43.212;27.908;2022-09-29T15:27:05;22.60;;;12.73;;
71038;SDS011;58692;43.212;27.908;2022-09-29T15:29:36;23.95;;;13.45;;
71038;SDS011;58692;43.212;27.908;2022-09-29T15:32:01;20.98;;;12.80;;
71038;SDS011;58692;43.212;27.908;2022-09-29T15:34:29;19.77;;;12.47;;
71038;SDS011;58692;43.212;27.908;2022-09-29T15:36:55;20.42;;;12.82;;
71038;SDS011;58692;43.212;27.908;2022-09-29T15:42:12;19.90;;;13.93;;
71038;SDS011;58692;43.212;27.908;2022-09-29T15:44:44;23.33;;;14.37;;
71038;SDS011;58692;43.212;27.908;2022-09-29T15:47:20;19.40;;;13.00;;
71038;SDS011;58692;43.212;27.908;2022-09-29T15:49:52;17.45;;;10.88;;
71038;SDS011;58692;43.212;27.908;2022-09-29T15:52:18;22.15;;;13.77;;
71038;SDS011;58692;43.212;27.908;2022-09-29T15:54:48;23.00;;;12.70;;
71038;SDS011;58692;43.212;27.908;2022-09-29T15:57:27;22.77;;;14.40;;
71038;SDS011;58692;43.212;27.908;2022-09-29T16:05:32;24.55;;;14.75;;
71038;SDS011;58692;43.212;27.908;2022-09-29T16:08:03;26.13;;;16.27;;
71038;SDS011;58692;43.212;27.908;2022-09-29T16:10:32;24.27;;;15.33;;
71038;SDS011;58692;43.212;27.908;2022-09-29T16:13:01;23.23;;;15.68;;
71038;SDS011;58692;43.212;27.908;2022-09-29T16:15:34;20.20;;;14.27;;
71038;SDS011;58692;43.212;27.908;2022-09-29T16:18:07;23.23;;;14.82;;
71038;SDS011;58692;43.212;27.908;2022-09-29T16:20:38;24.67;;;16.45;;
71038;SDS011;58692;43.212;27.908;2022-09-29T16:23:13;21.80;;;14.93;;
71038;SDS011;58692;43.212;27.908;2022-09-29T16:28:57;23.90;;;14.07;;
71038;SDS011;58692;43.212;27.908;2022-09-29T16:31:23;21.30;;;14.75;;
71038;SDS011;58692;43.212;27.908;2022-09-29T16:33:53;20.65;;;13.93;;
71038;SDS011;58692;43.212;27.908;2022-09-29T16:36:20;20.57;;;14.00;;
71038;SDS011;58692;43.212;27.908;2022-09-29T16:38:51;24.00;;;15.10;;
71038;SDS011;58692;43.212;27.908;2022-09-29T16:46:27;24.00;;;15.70;;
71038;SDS011;58692;43.212;27.908;2022-09-29T16:48:53;24.77;;;15.98;;
71038;SDS011;58692;43.212;27.908;2022-09-29T16:51:20;24.73;;;16.20;;
71038;SDS011;58692;43.212;27.908;2022-09-29T16:53:47;25.40;;;16.73;;
71038;SDS011;58692;43.212;27.908;2022-09-29T16:56:16;24.08;;;15.85;;
71038;SDS011;58692;43.212;27.908;2022-09-29T16:59:00;31.65;;;16.98;;
71038;SDS011;58692;43.212;27.908;2022-09-29T17:01:28;26.27;;;15.60;;
71038;SDS011;58692;43.212;27.908;2022-09-29T17:03:54;22.30;;;14.85;;
71038;SDS011;58692;43.212;27.908;2022-09-29T17:06:19;23.33;;;16.03;;
71038;SDS011;58692;43.212;27.908;2022-09-29T17:08:45;26.00;;;15.65;;
71038;SDS011;58692;43.212;27.908;2022-09-29T17:11:10;26.97;;;15.63;;
71038;SDS011;58692;43.212;27.908;2022-09-29T17:13:36;24.65;;;15.23;;
71038;SDS011;58692;43.212;27.908;2022-09-29T17:16:01;24.67;;;14.77;;
71038;SDS011;58692;43.212;27.908;2022-09-29T17:18:31;24.75;;;13.85;;
71038;SDS011;58692;43.212;27.908;2022-09-29T17:20:57;28.10;;;15.57;;
71038;SDS011;58692;43.212;27.908;2022-09-29T17:23:22;26.53;;;15.13;;
71038;SDS011;58692;43.212;27.908;2022-09-29T17:25:48;25.30;;;15.43;;
71038;SDS011;58692;43.212;27.908;2022-09-29T17:28:14;24.97;;;15.30;;
71038;SDS011;58692;43.212;27.908;2022-09-29T17:30:44;25.73;;;15.40;;
71038;SDS011;58692;43.212;27.908;2022-09-29T17:33:11;27.50;;;15.95;;
71038;SDS011;58692;43.212;27.908;2022-09-29T17:35:40;19.27;;;13.65;;
71038;SDS011;58692;43.212;27.908;2022-09-29T17:38:09;21.00;;;14.35;;
71038;SDS011;58692;43.212;27.908;2022-09-29T17:43:17;27.80;;;16.20;;
71038;SDS011;58692;43.212;27.908;2022-09-29T17:45:42;24.55;;;16.58;;
71038;SDS011;58692;43.212;27.908;2022-09-29T17:48:10;25.63;;;17.25;;
71038;SDS011;58692;43.212;27.908;2022-09-29T17:53:18;25.73;;;16.37;;
71038;SDS011;58692;43.212;27.908;2022-09-29T17:55:45;27.17;;;17.58;;
71038;SDS011;58692;43.212;27.908;2022-09-29T17:58:13;25.65;;;16.67;;
71038;SDS011;58692;43.212;27.908;2022-09-29T18:00:41;29.20;;;16.33;;